Time;durP1;ratioP1;P1;durP2;ratioP2;P2;SDS_P1;SDS_P2;PMS_P1;PMS_P2;Temp;Humidity;BMP_temperature;BMP_pressure;BME280_temperature;BME280_humidity;BME280_pressure;Samples;Min_cycle;Max_cycle;Signal;HPM_P1;HPM_P2
2022/11/17 00:01:56;;;;;;;5.53;4.17;;;8.90;99.90;;;;;;5072834;28;20205;-89
2022/11/17 00:04:24;;;;;;;5.13;4.13;;;8.90;99.90;;;;;;5071483;28;20176;-89
2022/11/17 00:06:49;;;;;;;6.03;4.60;;;8.90;99.90;;;;;;5072837;28;20210;-90
2022/11/17 00:09:16;;;;;;;6.03;3.63;;;8.90;99.90;;;;;;5072660;28;20195;-88
2022/11/17 00:14:35;;;;;;;5.30;3.50;;;8.80;99.90;;;;;;5072905;28;20229;-88
2022/11/17 00:17:11;;;;;;;4.73;3.67;;;8.80;99.90;;;;;;5071398;28;20179;-88
2022/11/17 00:22:22;;;;;;;5.03;3.33;;;8.80;99.90;;;;;;5072550;28;20210;-88
2022/11/17 00:24:48;;;;;;;5.63;3.47;;;8.80;99.90;;;;;;5071307;28;20178;-89
2022/11/17 00:27:14;;;;;;;5.00;3.70;;;8.80;99.90;;;;;;5071286;28;20182;-88
2022/11/17 00:29:39;;;;;;;4.83;3.53;;;8.90;99.90;;;;;;5071282;28;20206;-88
2022/11/17 00:34:54;;;;;;;4.47;3.37;;;8.90;99.90;;;;;;5072167;28;20190;-88
2022/11/17 00:37:19;;;;;;;5.03;3.43;;;9.00;99.90;;;;;;5072225;28;20174;-88
2022/11/17 00:39:45;;;;;;;4.73;3.50;;;9.00;99.90;;;;;;5071079;28;20275;-89
2022/11/17 00:42:11;;;;;;;5.23;3.60;;;8.90;99.90;;;;;;5072110;28;20202;-88
2022/11/17 00:44:36;;;;;;;6.87;3.73;;;8.90;99.90;;;;;;5072368;28;20182;-88
2022/11/17 00:47:02;;;;;;;6.17;3.73;;;8.90;99.90;;;;;;5071037;28;20181;-88
2022/11/17 00:49:27;;;;;;;5.07;3.60;;;9.00;99.90;;;;;;5071072;28;20200;-88
2022/11/17 00:51:54;;;;;;;5.37;4.10;;;9.00;99.90;;;;;;5072240;28;20185;-88
2022/11/17 00:54:20;;;;;;;5.13;3.97;;;9.00;99.90;;;;;;5072345;28;20186;-88
2022/11/17 00:56:46;;;;;;;5.83;3.80;;;8.90;99.90;;;;;;5072251;28;20266;-89
2022/11/17 00:59:12;;;;;;;5.50;3.83;;;8.90;99.90;;;;;;5097431;22;20287;-81
2022/11/17 01:01:38;;;;;;;5.57;3.70;;;8.90;99.90;;;;;;5032732;28;20199;-81
2022/11/17 01:04:05;;;;;;;7.00;3.93;;;8.90;99.90;;;;;;5032454;28;20179;-81
2022/11/17 01:06:36;;;;;;;5.47;3.73;;;9.00;99.90;;;;;;5032308;28;20543;-80
2022/11/17 01:09:05;;;;;;;7.13;3.97;;;9.00;99.90;;;;;;5035437;28;20641;-81
2022/11/17 01:11:31;;;;;;;6.43;4.40;;;9.00;99.90;;;;;;5029121;28;20198;-80
2022/11/17 01:13:58;;;;;;;5.87;4.47;;;8.90;99.90;;;;;;5012443;28;20179;-80
2022/11/17 01:16:24;;;;;;;6.87;4.47;;;8.90;99.90;;;;;;5029203;28;20180;-80
2022/11/17 01:18:51;;;;;;;7.50;4.53;;;8.90;99.90;;;;;;5014048;28;20236;-80
2022/11/17 01:21:24;;;;;;;7.57;4.33;;;8.90;99.90;;;;;;5015893;28;20194;-81
2022/11/17 01:23:53;;;;;;;7.37;4.37;;;8.80;99.90;;;;;;5018060;28;20174;-80
2022/11/17 01:26:24;;;;;;;8.07;4.83;;;8.80;99.90;;;;;;5018301;28;20173;-80
2022/11/17 01:28:50;;;;;;;7.77;4.40;;;8.90;99.90;;;;;;5017742;28;20200;-80
2022/11/17 01:31:21;;;;;;;7.23;4.33;;;8.90;99.90;;;;;;5017900;28;20206;-80
2022/11/17 01:33:47;;;;;;;7.83;4.27;;;8.90;99.90;;;;;;5016626;28;20193;-80
2022/11/17 01:36:22;;;;;;;8.43;4.67;;;8.90;99.90;;;;;;5017797;28;20270;-80
2022/11/17 01:38:48;;;;;;;5.93;4.67;;;8.90;99.90;;;;;;5018062;28;20194;-80
2022/11/17 01:41:25;;;;;;;8.20;5.00;;;8.90;99.90;;;;;;5017036;28;20562;-80
2022/11/17 01:43:58;;;;;;;7.17;4.60;;;8.80;99.90;;;;;;5018176;28;20183;-80
2022/11/17 01:46:26;;;;;;;6.47;4.77;;;8.80;99.90;;;;;;5017009;28;20169;-80
2022/11/17 01:48:54;;;;;;;7.37;4.90;;;8.80;99.90;;;;;;5018510;28;20211;-80
2022/11/17 01:51:21;;;;;;;7.23;4.97;;;8.80;99.90;;;;;;5032929;28;20182;-80
2022/11/17 01:53:50;;;;;;;8.40;5.47;;;8.80;99.90;;;;;;5032921;28;20184;-80
2022/11/17 01:56:22;;;;;;;8.13;5.10;;;8.80;99.90;;;;;;5018539;28;20176;-80
2022/11/17 01:58:55;;;;;;;8.27;5.20;;;8.80;99.90;;;;;;5018127;28;20214;-81
2022/11/17 02:01:20;;;;;;;8.37;5.77;;;8.80;99.90;;;;;;5016883;28;20197;-80
2022/11/17 02:03:48;;;;;;;10.03;6.07;;;8.80;99.90;;;;;;5033368;28;20263;-80
2022/11/17 02:06:24;;;;;;;10.03;5.90;;;8.80;99.90;;;;;;5033434;28;20174;-80
2022/11/17 02:08:51;;;;;;;8.17;5.77;;;8.90;99.90;;;;;;5017440;28;20199;-80
2022/11/17 02:11:19;;;;;;;9.60;6.03;;;8.90;99.90;;;;;;5018556;28;20168;-81
2022/11/17 02:13:45;;;;;;;8.80;6.20;;;8.80;99.90;;;;;;5018243;28;20171;-80
2022/11/17 02:16:12;;;;;;;10.87;6.40;;;8.80;99.90;;;;;;5019147;28;20184;-80
2022/11/17 02:18:40;;;;;;;8.13;5.60;;;8.80;99.90;;;;;;5017247;28;20196;-80
2022/11/17 02:21:05;;;;;;;8.00;5.60;;;8.80;99.90;;;;;;5016725;28;20199;-80
2022/11/17 02:23:31;;;;;;;7.57;5.10;;;8.80;99.90;;;;;;5019201;28;20198;-80
2022/11/17 02:25:59;;;;;;;8.27;5.57;;;8.80;99.90;;;;;;5019117;28;20179;-80
2022/11/17 02:28:28;;;;;;;9.33;5.97;;;8.80;99.90;;;;;;5034038;28;20346;-81
2022/11/17 02:31:23;;;;;;;8.17;6.03;;;8.80;99.90;;;;;;5034304;28;20183;-80
2022/11/17 02:33:52;;;;;;;8.47;5.90;;;8.80;99.90;;;;;;5018649;28;20182;-80
2022/11/17 02:36:30;;;;;;;10.00;5.90;;;8.80;99.90;;;;;;5019244;28;20182;-80
2022/11/17 02:39:16;;;;;;;9.77;5.70;;;8.70;99.90;;;;;;5019401;28;20207;-81
2022/11/17 02:41:51;;;;;;;8.50;6.10;;;8.80;99.90;;;;;;5034609;28;20206;-80
2022/11/17 02:44:35;;;;;;;7.90;5.50;;;8.80;99.90;;;;;;5019010;28;20639;-80
2022/11/17 02:47:27;;;;;;;7.27;5.83;;;8.80;99.90;;;;;;5019885;28;20574;-80
2022/11/17 02:49:59;;;;;;;8.07;6.00;;;8.80;99.90;;;;;;5019526;28;20207;-80
2022/11/17 02:52:26;;;;;;;8.10;6.03;;;8.80;99.90;;;;;;5019650;28;20227;-80
2022/11/17 02:54:52;;;;;;;9.03;5.70;;;8.70;99.90;;;;;;5020568;28;20677;-80
2022/11/17 02:57:32;;;;;;;9.23;5.97;;;8.70;99.90;;;;;;5035372;28;20166;-80
2022/11/17 03:00:18;;;;;;;8.60;5.57;;;8.70;99.90;;;;;;5019887;28;20213;-81
2022/11/17 03:03:17;;;;;;;7.00;5.60;;;8.70;99.90;;;;;;5019663;28;20237;-80
2022/11/17 03:06:08;;;;;;;9.03;5.50;;;8.70;99.90;;;;;;5035920;28;20257;-80
2022/11/17 03:08:58;;;;;;;6.97;5.47;;;8.80;99.90;;;;;;5020295;28;20191;-80
2022/11/17 03:11:37;;;;;;;7.80;4.80;;;8.80;99.90;;;;;;5021157;28;20237;-80
2022/11/17 03:14:26;;;;;;;6.07;4.63;;;8.80;99.90;;;;;;5020538;28;20179;-80
2022/11/17 03:17:05;;;;;;;7.07;4.87;;;8.80;99.90;;;;;;5031738;28;20248;-80
2022/11/17 03:19:42;;;;;;;6.57;4.40;;;8.90;99.90;;;;;;5015693;28;20277;-80
2022/11/17 03:22:20;;;;;;;7.53;4.90;;;8.90;99.90;;;;;;5014668;28;20190;-81
2022/11/17 03:24:57;;;;;;;6.30;4.70;;;8.90;99.90;;;;;;5015646;28;20171;-81
2022/11/17 03:27:27;;;;;;;6.00;4.73;;;8.90;99.90;;;;;;5014540;28;20218;-80
2022/11/17 03:30:03;;;;;;;5.67;4.60;;;9.00;99.90;;;;;;5030423;28;20168;-80
2022/11/17 03:32:34;;;;;;;6.97;4.23;;;8.90;99.90;;;;;;5016064;28;20183;-80
2022/11/17 03:35:06;;;;;;;5.30;4.63;;;9.00;99.90;;;;;;5014218;28;20175;-80
2022/11/17 03:37:35;;;;;;;6.93;4.53;;;9.00;99.90;;;;;;5014088;28;20173;-80
2022/11/17 03:40:05;;;;;;;6.13;4.67;;;9.00;99.90;;;;;;5014211;28;20184;-81
2022/11/17 03:42:33;;;;;;;6.40;4.60;;;9.00;99.90;;;;;;5014943;28;20271;-79
2022/11/17 03:45:13;;;;;;;6.77;4.90;;;8.90;99.90;;;;;;5015033;28;20251;-80
2022/11/17 03:47:40;;;;;;;6.57;4.60;;;8.90;99.90;;;;;;5014145;28;20169;-80
2022/11/17 03:50:22;;;;;;;5.77;4.57;;;8.90;99.90;;;;;;5014168;28;20233;-81
2022/11/17 03:52:48;;;;;;;6.77;4.90;;;8.90;99.90;;;;;;5013990;28;20181;-80
2022/11/17 03:55:15;;;;;;;6.80;4.77;;;8.90;99.90;;;;;;5013731;28;20172;-80
2022/11/17 03:57:53;;;;;;;6.30;4.83;;;8.90;99.90;;;;;;5014914;28;20176;-80
2022/11/17 04:00:19;;;;;;;6.03;4.50;;;8.90;99.90;;;;;;5014148;28;20179;-80
2022/11/17 04:02:47;;;;;;;5.93;4.70;;;8.90;99.90;;;;;;5013670;28;20302;-80
2022/11/17 04:05:15;;;;;;;7.03;5.00;;;8.90;99.90;;;;;;5015854;28;20206;-80
2022/11/17 04:07:43;;;;;;;8.33;5.70;;;8.90;99.90;;;;;;5013953;28;20181;-80
2022/11/17 04:10:13;;;;;;;7.50;5.33;;;8.90;99.90;;;;;;5015403;28;20265;-80
2022/11/17 04:18:07;;;;;;;7.90;5.93;;;8.80;99.90;;;;;;5015871;28;20253;-79
2022/11/17 04:20:35;;;;;;;7.87;5.70;;;8.70;99.90;;;;;;5016159;28;20176;-79
2022/11/17 04:23:05;;;;;;;7.53;5.93;;;8.70;99.90;;;;;;5015393;28;20183;-79
2022/11/17 04:28:38;;;;;;;7.57;6.17;;;8.60;99.90;;;;;;5015508;28;20205;-80
2022/11/17 04:31:21;;;;;;;9.23;6.67;;;8.50;99.90;;;;;;5013801;28;20170;-79
2022/11/17 04:33:48;;;;;;;9.70;7.43;;;8.50;99.90;;;;;;5013473;28;20603;-80
2022/11/17 04:36:19;;;;;;;9.63;7.37;;;8.50;99.90;;;;;;5015693;28;20202;-80
2022/11/17 04:38:48;;;;;;;9.33;6.97;;;8.50;99.90;;;;;;5014096;28;20195;-81
2022/11/17 04:44:01;;;;;;;8.83;7.20;;;8.30;99.90;;;;;;5015582;28;20207;-80
2022/11/17 04:46:29;;;;;;;10.60;7.67;;;8.30;99.90;;;;;;5014847;28;20170;-80
2022/11/17 04:48:56;;;;;;;8.63;6.90;;;8.30;99.90;;;;;;5014576;28;20191;-80
2022/11/17 04:51:22;;;;;;;8.93;7.10;;;8.30;99.90;;;;;;5014601;28;20180;-80
2022/11/17 04:53:48;;;;;;;9.33;6.83;;;8.20;99.90;;;;;;5014494;28;20653;-80
2022/11/17 04:56:15;;;;;;;7.27;6.10;;;8.20;99.90;;;;;;5013890;28;20182;-80
2022/11/17 04:58:41;;;;;;;8.57;6.67;;;8.20;99.90;;;;;;5014646;28;20222;-79
2022/11/17 05:01:13;;;;;;;7.60;6.20;;;8.20;99.90;;;;;;5015163;28;20199;-80
2022/11/17 05:03:45;;;;;;;7.67;5.47;;;8.20;99.90;;;;;;5014485;28;20171;-80
2022/11/17 05:06:22;;;;;;;7.13;5.53;;;8.20;99.90;;;;;;5015885;28;20259;-80
2022/11/17 05:08:48;;;;;;;5.93;4.60;;;8.30;99.90;;;;;;5014682;28;20198;-80
2022/11/17 05:14:01;;;;;;;5.03;4.10;;;8.30;99.90;;;;;;5016831;28;20174;-80
2022/11/17 05:19:20;;;;;;;4.07;3.67;;;8.30;99.90;;;;;;5017014;28;20198;-80
2022/11/17 05:21:45;;;;;;;4.00;3.60;;;8.30;99.90;;;;;;5015595;28;20274;-80
2022/11/17 05:24:13;;;;;;;3.47;3.00;;;8.30;99.90;;;;;;5015536;28;20191;-80
2022/11/17 05:26:40;;;;;;;7.00;3.17;;;8.30;99.90;;;;;;5015652;28;20182;-80
2022/11/17 05:29:07;;;;;;;3.70;3.10;;;8.20;99.90;;;;;;5016042;28;20192;-80
2022/11/17 05:31:33;;;;;;;3.37;3.03;;;8.20;99.90;;;;;;5015809;28;20199;-81
2022/11/17 05:33:59;;;;;;;3.67;3.00;;;8.20;99.90;;;;;;5017375;28;20269;-80
2022/11/17 05:36:26;;;;;;;4.60;3.10;;;8.30;99.90;;;;;;5016441;28;20595;-80
2022/11/17 05:38:52;;;;;;;3.43;3.07;;;8.20;99.90;;;;;;5016650;28;20195;-81
2022/11/17 05:41:18;;;;;;;3.87;3.20;;;8.20;99.90;;;;;;5017721;28;20202;-80
2022/11/17 05:43:44;;;;;;;3.60;3.10;;;8.20;99.90;;;;;;5017656;28;20171;-80
2022/11/17 05:46:11;;;;;;;3.83;3.37;;;8.20;99.90;;;;;;5016924;28;20171;-80
2022/11/17 05:48:37;;;;;;;4.67;3.40;;;8.10;99.90;;;;;;5018599;28;20597;-81
2022/11/17 05:51:03;;;;;;;4.13;3.23;;;8.10;99.90;;;;;;5017029;28;20183;-80
2022/11/17 05:53:29;;;;;;;4.13;3.37;;;8.10;99.90;;;;;;5017517;28;20179;-80
2022/11/17 05:56:32;;;;;;;4.27;3.40;;;8.10;99.90;;;;;;5015044;28;20540;-80
2022/11/17 05:59:02;;;;;;;4.60;3.67;;;8.10;99.90;;;;;;5024669;28;20209;-80
2022/11/17 06:01:31;;;;;;;4.83;3.47;;;8.00;99.90;;;;;;5011647;28;20205;-80
2022/11/17 06:04:00;;;;;;;4.50;3.73;;;8.00;99.90;;;;;;5013151;28;20724;-80
2022/11/17 06:06:27;;;;;;;7.17;4.10;;;8.00;99.90;;;;;;5012226;28;20179;-80
2022/11/17 06:08:53;;;;;;;5.87;4.30;;;8.00;99.90;;;;;;5015518;28;20201;-82
2022/11/17 06:11:18;;;;;;;5.03;4.27;;;7.90;99.90;;;;;;5016769;28;20637;-84
2022/11/17 06:13:44;;;;;;;4.47;3.77;;;7.90;99.90;;;;;;5016440;28;20265;-80
2022/11/17 06:16:12;;;;;;;6.50;4.73;;;7.90;99.90;;;;;;5016377;28;20190;-83
2022/11/17 06:18:43;;;;;;;6.13;4.60;;;7.80;99.90;;;;;;5015410;28;20287;-84
2022/11/17 06:21:10;;;;;;;6.63;4.97;;;7.80;99.90;;;;;;5014607;28;20201;-83
2022/11/17 06:23:36;;;;;;;7.87;5.33;;;7.80;99.90;;;;;;5014423;28;20269;-83
2022/11/17 06:26:06;;;;;;;5.63;4.30;;;7.80;99.90;;;;;;5015716;28;20530;-84
2022/11/17 06:28:33;;;;;;;4.93;4.33;;;7.80;99.90;;;;;;5015920;28;20689;-84
2022/11/17 06:31:00;;;;;;;5.53;4.23;;;7.70;99.90;;;;;;5014736;28;20553;-84
2022/11/17 06:33:28;;;;;;;5.33;3.93;;;7.80;99.90;;;;;;5015465;28;20656;-84
2022/11/17 06:35:54;;;;;;;4.57;3.60;;;7.80;99.90;;;;;;5015793;28;20181;-84
2022/11/17 06:38:20;;;;;;;4.37;3.63;;;7.80;99.90;;;;;;5014601;28;20199;-84
2022/11/17 06:40:45;;;;;;;4.63;3.87;;;7.80;99.90;;;;;;5014640;28;20175;-82
2022/11/17 06:43:11;;;;;;;4.53;3.20;;;7.80;99.90;;;;;;5015303;28;20241;-81
2022/11/17 06:45:42;;;;;;;5.63;3.43;;;7.70;99.90;;;;;;5014732;28;20208;-83
2022/11/17 06:48:09;;;;;;;4.43;3.40;;;7.80;99.90;;;;;;5015567;28;20241;-82
2022/11/17 06:50:35;;;;;;;4.73;3.43;;;7.80;99.90;;;;;;5014280;28;20273;-82
2022/11/17 06:53:05;;;;;;;4.47;3.20;;;7.80;99.90;;;;;;5015257;28;20632;-81
2022/11/17 06:55:32;;;;;;;4.00;3.20;;;7.80;99.90;;;;;;5014194;28;20268;-81
2022/11/17 07:00:26;;;;;;;3.50;2.87;;;7.90;99.90;;;;;;5032361;28;20210;-84
2022/11/17 07:02:57;;;;;;;4.03;3.00;;;7.80;99.90;;;;;;5016609;28;20216;-85
2022/11/17 07:05:22;;;;;;;3.27;2.40;;;7.90;99.90;;;;;;5034204;28;20177;-85
2022/11/17 07:07:48;;;;;;;3.50;2.60;;;7.90;99.90;;;;;;5033313;28;20182;-85
2022/11/17 07:10:14;;;;;;;4.03;2.53;;;7.90;99.90;;;;;;5014054;28;20202;-86
2022/11/17 07:12:39;;;;;;;3.63;2.77;;;7.90;99.90;;;;;;4996801;28;20179;-85
2022/11/17 07:15:05;;;;;;;2.30;2.10;;;7.90;99.90;;;;;;5014127;28;20190;-85
2022/11/17 07:17:31;;;;;;;4.10;2.70;;;7.90;99.90;;;;;;4996734;28;20692;-83
2022/11/17 07:19:56;;;;;;;3.30;2.50;;;8.00;99.90;;;;;;4996158;28;20285;-80
2022/11/17 07:22:22;;;;;;;2.83;2.30;;;8.00;99.90;;;;;;5014196;28;20732;-82
2022/11/17 07:24:48;;;;;;;3.43;2.50;;;8.00;99.90;;;;;;5014049;28;20169;-81
2022/11/17 07:27:13;;;;;;;4.57;2.43;;;8.00;99.90;;;;;;4996602;28;20540;-82
2022/11/17 07:29:39;;;;;;;3.40;2.57;;;8.00;99.90;;;;;;5014508;28;20195;-82
2022/11/17 07:32:05;;;;;;;3.53;2.50;;;8.10;99.90;;;;;;5014469;28;20175;-80
2022/11/17 07:34:30;;;;;;;2.90;2.30;;;8.10;99.90;;;;;;4996356;28;20183;-81
2022/11/17 07:36:57;;;;;;;2.33;2.13;;;8.10;99.90;;;;;;4996304;28;20269;-82
2022/11/17 07:39:22;;;;;;;3.03;2.30;;;8.10;99.90;;;;;;5014793;28;20203;-80
2022/11/17 07:41:48;;;;;;;3.13;2.43;;;8.30;99.90;;;;;;4997033;28;20295;-80
2022/11/17 07:44:13;;;;;;;2.70;2.33;;;8.30;99.90;;;;;;5014537;28;20179;-80
2022/11/17 07:46:39;;;;;;;2.80;2.23;;;8.30;99.90;;;;;;4997348;28;20173;-81
2022/11/17 07:49:04;;;;;;;3.23;2.67;;;8.40;99.90;;;;;;4996985;28;20198;-80
2022/11/17 07:51:30;;;;;;;4.17;2.50;;;8.40;99.90;;;;;;5014629;28;20183;-80
2022/11/17 07:53:55;;;;;;;3.23;2.50;;;8.40;99.90;;;;;;4996594;28;20183;-80
2022/11/17 07:56:21;;;;;;;3.50;2.47;;;8.50;99.90;;;;;;4997615;28;20266;-80
2022/11/17 07:58:47;;;;;;;3.37;2.50;;;8.50;99.90;;;;;;5014476;28;20235;-81
2022/11/17 08:01:14;;;;;;;3.40;2.40;;;8.50;99.90;;;;;;4996828;28;20203;-81
2022/11/17 08:03:40;;;;;;;4.07;2.80;;;8.60;99.90;;;;;;5014779;28;20167;-81
2022/11/17 08:06:08;;;;;;;3.33;2.70;;;8.60;99.90;;;;;;5014231;28;20270;-81
2022/11/17 08:08:35;;;;;;;3.57;2.90;;;8.60;99.90;;;;;;4997336;28;20203;-80
2022/11/17 08:11:06;;;;;;;4.07;2.90;;;8.60;99.90;;;;;;4997659;28;20187;-79
2022/11/17 08:13:32;;;;;;;3.77;2.97;;;8.70;99.90;;;;;;4997056;28;20182;-80
2022/11/17 08:15:58;;;;;;;3.30;2.93;;;8.70;99.90;;;;;;5014892;28;20250;-81
2022/11/17 08:18:24;;;;;;;3.33;2.77;;;8.70;99.90;;;;;;4992744;28;20200;-81
2022/11/17 08:20:49;;;;;;;3.20;2.90;;;8.80;99.90;;;;;;5004598;28;20270;-81
2022/11/17 08:23:15;;;;;;;4.13;3.10;;;8.80;99.90;;;;;;5033086;28;20183;-80
2022/11/17 08:25:40;;;;;;;4.67;2.83;;;8.80;99.90;;;;;;5034820;28;20183;-80
2022/11/17 08:28:06;;;;;;;3.27;2.80;;;8.80;99.90;;;;;;5029051;28;20213;-81
2022/11/17 08:30:34;;;;;;;3.00;2.67;;;8.90;99.90;;;;;;4999430;28;20319;-82
2022/11/17 08:33:01;;;;;;;4.67;2.73;;;8.90;99.90;;;;;;5002340;28;20180;-80
2022/11/17 08:35:27;;;;;;;5.07;3.00;;;9.00;99.90;;;;;;5012296;28;20186;-80
2022/11/17 08:37:53;;;;;;;3.40;2.90;;;9.10;99.90;;;;;;5009752;28;20705;-81
2022/11/17 08:40:19;;;;;;;4.30;2.97;;;9.20;99.90;;;;;;5016837;28;20568;-80
2022/11/17 08:42:46;;;;;;;3.00;2.70;;;9.20;99.90;;;;;;5017242;28;20239;-80
2022/11/17 08:45:12;;;;;;;4.00;2.80;;;9.20;99.90;;;;;;5034010;28;20172;-81
2022/11/17 08:47:38;;;;;;;3.03;2.70;;;9.20;99.90;;;;;;5034057;28;20174;-81
2022/11/17 08:50:08;;;;;;;4.87;2.90;;;9.30;99.90;;;;;;5033810;28;20203;-81
2022/11/17 08:52:33;;;;;;;4.33;2.87;;;9.30;99.90;;;;;;5016367;28;20225;-81
2022/11/17 08:54:59;;;;;;;4.80;2.70;;;9.40;99.90;;;;;;5015918;28;20176;-82
2022/11/17 08:57:24;;;;;;;5.83;2.70;;;9.40;99.90;;;;;;5016463;28;20185;-81
2022/11/17 08:59:50;;;;;;;2.90;2.50;;;9.40;99.90;;;;;;5016213;28;20223;-81
2022/11/17 09:02:16;;;;;;;2.63;2.20;;;9.50;99.90;;;;;;5035072;28;20205;-81
2022/11/17 09:04:41;;;;;;;3.50;2.50;;;9.50;99.90;;;;;;5016539;28;20168;-82
2022/11/17 09:07:07;;;;;;;4.53;2.40;;;9.60;99.90;;;;;;5034766;28;20234;-81
2022/11/17 09:09:33;;;;;;;3.23;2.40;;;9.60;99.90;;;;;;5034517;28;20189;-81
2022/11/17 09:11:59;;;;;;;3.53;2.43;;;9.70;99.90;;;;;;5034855;28;20203;-81
2022/11/17 09:14:25;;;;;;;3.10;2.23;;;9.80;99.90;;;;;;5034983;28;20212;-81
2022/11/17 09:16:51;;;;;;;2.80;2.50;;;9.80;99.90;;;;;;5016574;28;20248;-81
2022/11/17 09:19:18;;;;;;;2.90;2.40;;;9.90;99.90;;;;;;5017731;28;20197;-81
2022/11/17 09:21:43;;;;;;;3.07;2.30;;;9.90;99.90;;;;;;5034184;28;20201;-81
2022/11/17 09:24:09;;;;;;;2.83;2.50;;;10.00;99.90;;;;;;5016716;28;20231;-81
2022/11/17 09:26:39;;;;;;;3.73;2.50;;;10.10;99.90;;;;;;5034336;28;20187;-81
2022/11/17 09:29:05;;;;;;;3.50;2.33;;;10.10;99.90;;;;;;5016673;28;20212;-81
2022/11/17 09:31:31;;;;;;;3.40;2.33;;;10.00;99.90;;;;;;5034629;28;20190;-81
2022/11/17 09:33:57;;;;;;;3.23;2.33;;;10.00;99.90;;;;;;5016586;28;20266;-81
2022/11/17 09:36:22;;;;;;;4.20;2.40;;;10.00;99.90;;;;;;5016820;28;20174;-80
2022/11/17 09:38:49;;;;;;;2.90;2.30;;;10.00;99.90;;;;;;5034354;28;20230;-81
2022/11/17 09:41:14;;;;;;;3.00;2.00;;;10.00;99.90;;;;;;5016643;28;20209;-82
2022/11/17 09:43:49;;;;;;;2.53;2.13;;;10.00;99.90;;;;;;5020353;28;20592;-81
2022/11/17 09:46:31;;;;;;;4.70;2.50;;;10.00;99.90;;;;;;5037860;28;20698;-82
2022/11/17 09:49:10;;;;;;;4.20;2.53;;;10.00;99.90;;;;;;5020329;28;20665;-81
2022/11/17 09:51:39;;;;;;;4.37;2.60;;;9.90;99.90;;;;;;5020440;28;20269;-81
2022/11/17 09:54:20;;;;;;;4.80;2.43;;;9.90;99.90;;;;;;5020300;28;20182;-80
2022/11/17 09:56:46;;;;;;;4.77;2.70;;;9.80;99.90;;;;;;5020652;28;20177;-81
2022/11/17 09:59:16;;;;;;;4.27;2.40;;;9.70;99.90;;;;;;5038000;28;20211;-81
2022/11/17 10:01:41;;;;;;;3.47;2.30;;;9.70;99.90;;;;;;5020467;28;20198;-82
2022/11/17 10:04:11;;;;;;;2.63;2.23;;;9.70;99.90;;;;;;5020007;28;20656;-80
2022/11/17 10:06:38;;;;;;;3.67;2.30;;;9.70;99.90;;;;;;5020424;28;20218;-81
2022/11/17 10:09:25;;;;;;;2.60;2.30;;;9.70;99.90;;;;;;5037825;28;20197;-81
2022/11/17 10:11:53;;;;;;;3.50;2.10;;;9.70;99.90;;;;;;5020222;28;20177;-81
2022/11/17 10:14:22;;;;;;;3.80;1.90;;;9.70;99.90;;;;;;5037434;28;20319;-80
2022/11/17 10:16:53;;;;;;;5.70;2.30;;;9.80;99.90;;;;;;5037683;28;20184;-81
2022/11/17 10:19:21;;;;;;;3.20;1.90;;;9.80;99.90;;;;;;5037399;28;20191;-80
2022/11/17 10:22:01;;;;;;;2.53;2.07;;;9.90;99.90;;;;;;5019810;28;20205;-81
2022/11/17 10:24:46;;;;;;;4.30;1.80;;;10.00;99.90;;;;;;5036920;28;20263;-81
2022/11/17 10:27:25;;;;;;;4.10;2.07;;;10.00;99.90;;;;;;5018931;28;20172;-80
2022/11/17 10:29:58;;;;;;;4.03;1.80;;;10.10;99.90;;;;;;5018817;28;20193;-81
2022/11/17 10:32:25;;;;;;;5.13;2.10;;;10.10;99.90;;;;;;5019011;28;20175;-80
2022/11/17 10:34:51;;;;;;;4.87;1.93;;;10.10;99.90;;;;;;5036168;28;20184;-80
2022/11/17 10:37:20;;;;;;;3.93;2.30;;;10.00;99.90;;;;;;5019157;28;20178;-80
2022/11/17 10:39:45;;;;;;;4.87;2.20;;;10.00;99.90;;;;;;5018806;28;20198;-80
2022/11/17 10:42:31;;;;;;;3.47;2.20;;;10.00;99.90;;;;;;5019228;28;20210;-80
2022/11/17 10:44:59;;;;;;;3.30;2.20;;;10.00;99.90;;;;;;5018431;28;20182;-80
2022/11/17 10:47:33;;;;;;;2.87;2.17;;;10.00;99.90;;;;;;5018774;28;20181;-80
2022/11/17 10:50:19;;;;;;;3.13;2.07;;;9.90;99.90;;;;;;5018507;28;20572;-79
2022/11/17 10:52:46;;;;;;;4.60;2.17;;;10.00;99.90;;;;;;5018724;28;20176;-80
2022/11/17 10:55:25;;;;;;;4.37;2.10;;;9.90;99.90;;;;;;5036096;28;20718;-80
2022/11/17 10:57:54;;;;;;;3.70;1.90;;;9.90;99.90;;;;;;5036490;28;20192;-80
2022/11/17 11:00:29;;;;;;;3.87;2.10;;;9.90;99.90;;;;;;5020856;28;20221;-80
2022/11/17 11:03:06;;;;;;;2.97;2.03;;;9.90;99.90;;;;;;5039252;28;20234;-80
2022/11/17 11:05:32;;;;;;;3.67;1.80;;;9.90;99.90;;;;;;5037688;28;20258;-80
2022/11/17 11:08:22;;;;;;;5.60;1.87;;;9.90;99.90;;;;;;5019548;28;20181;-80
2022/11/17 11:10:51;;;;;;;3.63;2.07;;;9.90;99.90;;;;;;5037328;28;20205;-80
2022/11/17 11:13:46;;;;;;;1.47;1.20;;;9.80;99.90;;;;;;5037001;28;20189;-80
2022/11/17 11:16:12;;;;;;;2.03;1.10;;;9.70;99.90;;;;;;5019609;28;20174;-80
2022/11/17 11:18:38;;;;;;;1.07;0.90;;;9.70;99.90;;;;;;5019762;28;20200;-80
2022/11/17 11:21:21;;;;;;;2.23;1.33;;;9.70;99.90;;;;;;5007568;28;20182;-82
2022/11/17 11:24:17;;;;;;;1.43;1.13;;;9.70;99.90;;;;;;5001882;28;20240;-79
2022/11/17 11:27:20;;;;;;;1.33;1.03;;;9.70;99.90;;;;;;5015482;28;20566;-79
2022/11/17 11:30:09;;;;;;;1.10;1.00;;;9.70;99.90;;;;;;5014371;28;20199;-82
2022/11/17 11:32:59;;;;;;;2.47;1.10;;;9.60;99.90;;;;;;5023899;28;20188;-84
2022/11/17 11:35:43;;;;;;;2.20;1.20;;;9.50;99.90;;;;;;4993361;28;20229;-81
2022/11/17 11:38:29;;;;;;;1.90;1.30;;;9.40;99.90;;;;;;5017816;28;20177;-82
2022/11/17 11:41:15;;;;;;;1.33;1.10;;;9.30;99.90;;;;;;5017301;28;20176;-82
2022/11/17 11:43:53;;;;;;;2.47;1.10;;;9.30;99.90;;;;;;5022046;28;20213;-82
2022/11/17 11:46:32;;;;;;;1.90;1.20;;;9.30;99.90;;;;;;5016384;28;20186;-82
2022/11/17 11:49:25;;;;;;;1.47;1.20;;;9.30;99.90;;;;;;5005202;28;20608;-81
2022/11/17 11:51:52;;;;;;;1.30;1.10;;;9.30;99.90;;;;;;4996332;28;20272;-81
2022/11/17 11:54:49;;;;;;;1.43;0.90;;;9.30;99.90;;;;;;4996390;28;20193;-81
2022/11/17 11:57:17;;;;;;;1.87;1.30;;;9.30;99.90;;;;;;4995994;28;20195;-81
2022/11/17 11:59:55;;;;;;;1.53;1.30;;;9.30;99.90;;;;;;5001090;28;20695;-81
2022/11/17 12:02:43;;;;;;;2.77;1.40;;;9.30;99.90;;;;;;5024196;28;20201;-84
2022/11/17 12:05:47;;;;;;;1.90;1.30;;;9.30;99.90;;;;;;5014994;28;20181;-84
2022/11/17 12:08:35;;;;;;;2.13;1.30;;;9.30;99.90;;;;;;4992289;28;20172;-84
2022/11/17 12:11:58;;;;;;;1.80;1.20;;;9.20;99.90;;;;;;5017893;28;20178;-84
2022/11/17 12:13:50;;;;;;;1.33;1.03;;;9.30;99.90;;;;;;5033255;28;20281;-84
2022/11/17 12:16:18;;;;;;;2.40;0.90;;;9.30;99.90;;;;;;5033566;28;20177;-84
2022/11/17 12:18:43;;;;;;;1.63;0.90;;;9.40;99.90;;;;;;5034056;28;20194;-83
2022/11/17 12:21:20;;;;;;;1.87;1.10;;;9.30;99.90;;;;;;5034233;28;20235;-83
2022/11/17 12:24:08;;;;;;;2.37;1.17;;;9.30;99.90;;;;;;5015872;28;20162;-83
2022/11/17 12:26:34;;;;;;;1.70;0.90;;;9.30;99.90;;;;;;5012993;28;20181;-83
2022/11/17 12:29:18;;;;;;;1.33;1.00;;;9.30;99.90;;;;;;5022342;28;20194;-83
2022/11/17 12:31:46;;;;;;;2.00;1.20;;;9.40;99.90;;;;;;5012526;28;20185;-83
2022/11/17 12:34:29;;;;;;;1.37;1.10;;;9.40;99.90;;;;;;5012090;28;20209;-83
2022/11/17 12:37:16;;;;;;;1.20;1.00;;;9.50;99.90;;;;;;5025289;28;20184;-83
2022/11/17 12:39:54;;;;;;;4.27;2.43;;;9.60;99.90;;;;;;5016646;28;20207;-82
2022/11/17 12:42:19;;;;;;;7.10;3.83;;;9.70;99.90;;;;;;5015939;28;20637;-83
2022/11/17 12:44:46;;;;;;;13.00;7.07;;;9.70;99.90;;;;;;5032877;28;20643;-83
2022/11/17 12:47:21;;;;;;;7.27;4.20;;;9.80;99.90;;;;;;5015551;28;20221;-83
2022/11/17 12:50:14;;;;;;;5.13;2.93;;;9.80;99.90;;;;;;5033001;28;20224;-83
2022/11/17 12:53:01;;;;;;;3.67;1.67;;;9.80;99.90;;;;;;5015291;28;20264;-83
2022/11/17 12:55:47;;;;;;;1.73;1.30;;;9.80;99.90;;;;;;5031841;28;20312;-83
2022/11/17 12:58:32;;;;;;;2.03;1.10;;;9.80;99.90;;;;;;5015044;28;20185;-83
2022/11/17 13:01:03;;;;;;;1.47;1.37;;;9.80;99.90;;;;;;5100807;23;20225;-80
2022/11/17 13:03:40;;;;;;;3.27;1.30;;;9.70;99.90;;;;;;5052911;28;20260;-83
2022/11/17 13:06:08;;;;;;;1.80;1.30;;;9.70;99.90;;;;;;5051711;28;20195;-83
2022/11/17 13:08:33;;;;;;;2.13;1.40;;;9.70;99.90;;;;;;5068374;28;20559;-83
2022/11/17 13:11:13;;;;;;;3.73;1.60;;;9.70;99.90;;;;;;5068360;28;20715;-83
2022/11/17 13:13:40;;;;;;;5.30;1.93;;;10.10;99.90;;;;;;5051679;28;20252;-84
2022/11/17 13:16:16;;;;;;;4.93;2.07;;;10.40;99.90;;;;;;5050892;28;20584;-84
2022/11/17 13:18:42;;;;;;;2.87;1.07;;;10.60;99.90;;;;;;5051776;28;20242;-84
2022/11/17 13:21:29;;;;;;;3.77;1.23;;;10.80;99.90;;;;;;5048566;28;20573;-84
2022/11/17 13:23:57;;;;;;;2.50;0.97;;;11.10;99.90;;;;;;5060392;28;20206;-83
2022/11/17 13:26:25;;;;;;;1.50;1.10;;;11.30;99.90;;;;;;5068337;28;20181;-83
2022/11/17 13:29:17;;;;;;;2.57;1.10;;;11.20;99.90;;;;;;5086507;28;20555;-84
2022/11/17 13:31:43;;;;;;;2.30;1.07;;;11.00;99.90;;;;;;5060624;28;20166;-84
2022/11/17 13:34:08;;;;;;;1.63;1.00;;;10.80;99.90;;;;;;5052407;28;20180;-85
2022/11/17 13:36:34;;;;;;;2.73;0.87;;;10.90;99.90;;;;;;5053106;28;20173;-83
2022/11/17 13:39:00;;;;;;;1.20;0.70;;;10.80;99.90;;;;;;5052588;28;20180;-83
2022/11/17 13:41:36;;;;;;;1.60;1.03;;;10.70;99.90;;;;;;5053584;28;20194;-84
2022/11/17 13:44:03;;;;;;;2.70;1.07;;;10.60;99.90;;;;;;5052192;28;20170;-83